Terminal Aerodrome Forecast
Issued by NWS

Home | Current Version | Previous Version | Text Only | Print | Product List | Glossary On
Versions: 1 2 3 4 5 6 7 8 9 10 11 12 13 14 15
000
FTAK31 PANC 201726
TAFADU
TAF
PADU 201726Z 2018/2118 VRB05KT P6SM -RA SCT008 OVC012
      TEMPO 2018/2021 6SM -RA BR OVC008
     FM202100 36012G22KT P6SM -RA SCT008 BKN015 OVC025
     FM210100 33020G30KT P6SM -SHRA SCT015 OVC025
     FM210700 31015G25KT P6SM -SHSN SCT015 BKN025 OVC050=

USA.gov is the U.S. government's official web portal to all federal, state and local government web resources and services.